createdAt,value
2019-01-31T00:01:54.912Z,0.45
2019-01-31T00:04:22.636Z,0.46
2019-01-31T00:06:50.277Z,0.44
2019-01-31T00:09:18.271Z,0.47
2019-01-31T00:11:45.907Z,0.44
2019-01-31T00:14:13.944Z,0.48
2019-01-31T00:16:41.978Z,0.40
2019-01-31T00:19:10.249Z,0.46
2019-01-31T00:21:38.214Z,0.44
2019-01-31T00:24:06.197Z,0.41
2019-01-31T00:26:34.153Z,0.39
2019-01-31T00:29:02.137Z,0.36
2019-01-31T00:31:30.113Z,0.44
2019-01-31T00:33:58.064Z,0.34
2019-01-31T00:36:26.035Z,0.38
2019-01-31T00:38:56.812Z,0.34
2019-01-31T00:41:23.016Z,0.42
2019-01-31T00:43:50.968Z,0.37
2019-01-31T00:46:18.935Z,0.36
2019-01-31T00:48:46.568Z,0.35
2019-01-31T00:51:14.480Z,0.41
2019-01-31T00:53:42.443Z,0.37
2019-01-31T00:56:10.407Z,0.32
2019-01-31T00:58:38.485Z,0.31
2019-01-31T01:01:06.457Z,0.33
2019-01-31T01:03:36.813Z,0.35
2019-01-31T01:06:04.131Z,0.35
2019-01-31T01:08:31.856Z,0.35
2019-01-31T01:10:59.760Z,0.33
2019-01-31T01:13:27.739Z,0.41
2019-01-31T01:15:55.717Z,0.32
2019-01-31T01:18:23.342Z,0.35
2019-01-31T01:20:50.989Z,0.34
2019-01-31T01:23:18.895Z,0.30
2019-01-31T01:25:46.530Z,0.33
2019-01-31T01:28:14.522Z,0.29
2019-01-31T01:30:42.490Z,0.27
2019-01-31T01:33:10.587Z,0.29
2019-01-31T01:35:38.538Z,0.27
2019-01-31T01:38:06.196Z,0.27
2019-01-31T01:40:33.842Z,0.32
2019-01-31T01:43:01.831Z,0.30
2019-01-31T01:45:29.473Z,0.32
2019-01-31T01:47:57.468Z,0.27
2019-01-31T01:50:25.436Z,0.28
2019-01-31T01:52:53.402Z,0.19
2019-01-31T01:55:21.061Z,0.19
2019-01-31T01:57:48.698Z,0.18
2019-01-31T02:00:16.700Z,0.20
2019-01-31T02:02:44.798Z,0.22
2019-01-31T02:05:12.759Z,0.19
2019-01-31T02:07:40.731Z,0.16
2019-01-31T02:10:08.678Z,0.21
2019-01-31T02:12:36.647Z,0.27
2019-01-31T02:15:04.621Z,0.24
2019-01-31T02:17:32.293Z,0.23
2019-01-31T02:20:00.361Z,0.20
2019-01-31T02:22:27.967Z,0.26
2019-01-31T02:24:55.875Z,0.26
2019-01-31T02:27:23.860Z,0.25
2019-01-31T02:29:51.828Z,0.22
2019-01-31T02:32:19.474Z,0.21
2019-01-31T02:34:47.361Z,0.13
2019-01-31T02:37:15.334Z,0.16
2019-01-31T02:39:43.559Z,0.16
2019-01-31T02:42:11.243Z,0.19
2019-01-31T02:44:39.392Z,0.23
2019-01-31T02:47:07.406Z,0.19
2019-01-31T02:49:35.371Z,0.23
2019-01-31T02:52:03.345Z,0.12
2019-01-31T02:54:30.989Z,0.19
2019-01-31T02:56:59.008Z,0.18
2019-01-31T02:59:26.944Z,0.18
2019-01-31T03:01:54.912Z,0.20
2019-01-31T03:04:22.885Z,0.21
2019-01-31T03:06:50.849Z,0.24
2019-01-31T03:09:18.827Z,0.23
2019-01-31T03:11:46.796Z,0.19
2019-01-31T03:14:14.449Z,0.20
2019-01-31T03:16:42.081Z,0.11
2019-01-31T03:19:10.006Z,0.12
2019-01-31T03:21:38.261Z,0.11
2019-01-31T03:24:06.251Z,0.08
2019-01-31T03:26:34.204Z,0.02
2019-01-31T03:29:01.865Z,-0.05
2019-01-31T03:31:30.088Z,-0.05
2019-01-31T03:33:58.219Z,-0.04
2019-01-31T03:36:25.874Z,-0.13
2019-01-31T03:38:53.851Z,-0.12
2019-01-31T03:41:21.506Z,-0.20
2019-01-31T03:43:49.479Z,-0.15
2019-01-31T03:46:17.134Z,-0.15
2019-01-31T03:48:45.120Z,-0.13
2019-01-31T03:51:12.773Z,-0.17
2019-01-31T03:53:40.421Z,-0.31
2019-01-31T03:56:08.420Z,-0.18
2019-01-31T03:58:36.081Z,-0.31
2019-01-31T04:01:03.825Z,-0.31
2019-01-31T04:03:32.592Z,-0.33
2019-01-31T04:06:00.338Z,-0.32
2019-01-31T04:08:28.257Z,-0.36
2019-01-31T04:10:55.914Z,-0.33
2019-01-31T04:13:23.543Z,-0.38
2019-01-31T04:15:51.574Z,-0.36
2019-01-31T04:18:19.236Z,-0.35
2019-01-31T04:20:46.885Z,-0.39
2019-01-31T04:23:14.841Z,-0.36
2019-01-31T04:25:42.487Z,-0.38
2019-01-31T04:28:10.489Z,-0.39
2019-01-31T04:30:38.447Z,-0.35
2019-01-31T04:33:06.092Z,-0.38
2019-01-31T04:35:34.093Z,-0.52
2019-01-31T04:38:02.043Z,-0.54
2019-01-31T04:40:31.695Z,-0.50
2019-01-31T04:42:59.943Z,-0.54
2019-01-31T04:45:28.022Z,-0.50
2019-01-31T04:47:56.546Z,-0.51
2019-01-31T04:50:24.285Z,-0.48
2019-01-31T04:52:52.217Z,-0.61
2019-01-31T04:55:19.939Z,-0.51
2019-01-31T04:57:47.945Z,-0.63
2019-01-31T05:00:15.940Z,-0.61
2019-01-31T05:02:43.625Z,-0.60
2019-01-31T05:05:11.547Z,-0.54
2019-01-31T05:07:39.519Z,-0.56
2019-01-31T05:10:07.492Z,-0.52
2019-01-31T05:12:35.455Z,-0.58
2019-01-31T05:15:03.086Z,-0.60
2019-01-31T05:17:30.992Z,-0.62
2019-01-31T05:19:58.620Z,-0.66
2019-01-31T05:22:26.627Z,-0.50
2019-01-31T05:24:54.330Z,-0.61
2019-01-31T05:27:21.972Z,-0.59
2019-01-31T05:29:49.916Z,-0.59
2019-01-31T05:32:17.550Z,-0.57
2019-01-31T05:34:45.458Z,-0.56
2019-01-31T05:37:13.084Z,-0.56
2019-01-31T05:39:40.990Z,-0.59
2019-01-31T05:42:08.941Z,-0.69
2019-01-31T05:44:36.574Z,-0.64
2019-01-31T05:47:04.212Z,-0.56
2019-01-31T05:49:31.844Z,-0.58
2019-01-31T05:51:59.862Z,-0.69
2019-01-31T05:54:27.436Z,-0.65
2019-01-31T05:56:55.071Z,-0.68
2019-01-31T05:59:22.995Z,-0.63
2019-01-31T06:01:50.962Z,-0.62
2019-01-31T06:04:18.935Z,-0.61
2019-01-31T06:06:46.585Z,-0.64
2019-01-31T06:09:14.206Z,-0.66
2019-01-31T06:11:42.131Z,-0.59
2019-01-31T06:14:09.770Z,-0.60
2019-01-31T06:16:37.755Z,-0.59
2019-01-31T06:19:05.743Z,-0.57
2019-01-31T06:21:33.376Z,-0.68
2019-01-31T06:24:01.354Z,-0.67
2019-01-31T06:26:28.984Z,-0.73
2019-01-31T06:28:56.883Z,-0.61
2019-01-31T06:31:24.853Z,-0.58
2019-01-31T06:33:52.826Z,-0.54
2019-01-31T06:36:20.795Z,-0.62
2019-01-31T06:38:48.766Z,-0.63
2019-01-31T06:41:18.782Z,-0.70
2019-01-31T06:43:45.812Z,-0.68
2019-01-31T06:46:13.692Z,-0.70
2019-01-31T06:48:41.664Z,-0.72
2019-01-31T06:51:09.354Z,-0.71
2019-01-31T06:53:37.298Z,-0.72
2019-01-31T06:56:04.930Z,-0.74
2019-01-31T06:58:32.571Z,-0.72
2019-01-31T07:01:00.487Z,-0.74
2019-01-31T07:03:28.117Z,-0.82
2019-01-31T07:05:56.018Z,-0.82
2019-01-31T07:08:23.986Z,-0.73
2019-01-31T07:10:51.957Z,-0.73
2019-01-31T07:13:19.967Z,-0.74
2019-01-31T07:15:47.895Z,-0.70
2019-01-31T07:18:15.862Z,-0.69
2019-01-31T07:20:43.483Z,-0.68
2019-01-31T07:23:11.407Z,-0.63
2019-01-31T07:25:39.025Z,-0.60
2019-01-31T07:28:06.666Z,-0.56
2019-01-31T07:30:34.589Z,-0.60
2019-01-31T07:33:02.574Z,-0.57
2019-01-31T07:35:30.202Z,-0.54
2019-01-31T07:37:57.836Z,-0.54
2019-01-31T07:40:25.749Z,-0.44
2019-01-31T07:42:54.639Z,-0.43
2019-01-31T07:45:22.279Z,-0.45
2019-01-31T07:47:50.277Z,-0.41
2019-01-31T07:50:17.916Z,-0.38
2019-01-31T07:52:45.800Z,-0.38
2019-01-31T07:55:13.431Z,-0.28
2019-01-31T07:57:41.055Z,-0.23
2019-01-31T08:00:08.993Z,-0.23
2019-01-31T08:02:36.967Z,-0.20
2019-01-31T08:05:04.930Z,-0.08
2019-01-31T08:07:32.900Z,0.05
2019-01-31T08:10:00.870Z,0.05
2019-01-31T08:12:28.511Z,0.09
2019-01-31T08:14:56.404Z,0.03
2019-01-31T08:17:24.373Z,-0.01
2019-01-31T08:19:52.343Z,0.06
2019-01-31T08:22:20.023Z,0.01
2019-01-31T08:24:47.971Z,0.20
2019-01-31T08:27:15.942Z,0.38
2019-01-31T08:29:43.913Z,0.41
2019-01-31T08:32:11.530Z,0.30
2019-01-31T08:34:39.460Z,0.30
2019-01-31T08:37:07.089Z,0.33
2019-01-31T08:39:34.717Z,0.34
2019-01-31T08:42:03.824Z,0.40
2019-01-31T08:44:31.654Z,0.52
2019-01-31T08:46:59.271Z,0.57
2019-01-31T08:49:26.898Z,0.75
2019-01-31T08:51:54.818Z,0.88
2019-01-31T08:54:22.459Z,0.93
2019-01-31T08:56:50.362Z,1.10
2019-01-31T08:59:18.330Z,1.19
2019-01-31T09:01:46.287Z,1.14
2019-01-31T09:04:14.258Z,1.26
2019-01-31T09:06:41.882Z,1.39
2019-01-31T09:09:09.507Z,1.48
2019-01-31T09:11:37.139Z,1.58
2019-01-31T09:14:05.418Z,1.65
2019-01-31T09:16:33.388Z,1.57
2019-01-31T09:19:04.053Z,1.54
2019-01-31T09:21:30.753Z,1.57
2019-01-31T09:23:58.384Z,1.67
2019-01-31T09:26:26.289Z,1.69
2019-01-31T09:28:54.257Z,1.76
2019-01-31T09:31:22.233Z,1.95
2019-01-31T09:33:49.874Z,1.91
2019-01-31T09:36:17.504Z,1.92
2019-01-31T09:38:45.439Z,2.17
2019-01-31T09:41:13.392Z,2.38
2019-01-31T09:43:41.365Z,2.27
2019-01-31T09:46:08.990Z,2.23
2019-01-31T09:48:36.891Z,2.30
2019-01-31T09:51:04.861Z,2.21
2019-01-31T09:53:32.831Z,2.26
2019-01-31T09:56:00.814Z,2.24
2019-01-31T09:58:28.443Z,2.30
2019-01-31T10:00:56.354Z,2.47
2019-01-31T10:03:24.302Z,2.49
2019-01-31T10:05:51.934Z,2.72
2019-01-31T10:08:19.561Z,2.85
2019-01-31T10:10:47.566Z,2.72
2019-01-31T10:13:15.354Z,2.98
2019-01-31T10:15:43.361Z,3.12
2019-01-31T10:18:11.378Z,3.01
2019-01-31T10:20:39.125Z,2.96
2019-01-31T10:23:06.770Z,3.00
2019-01-31T10:25:35.828Z,3.21
2019-01-31T10:28:03.790Z,3.39
2019-01-31T10:30:31.783Z,3.28
2019-01-31T10:32:59.729Z,3.37
2019-01-31T10:35:27.366Z,3.06
2019-01-31T10:37:55.008Z,3.27
2019-01-31T10:40:22.931Z,3.24
2019-01-31T10:42:52.362Z,3.36
2019-01-31T10:45:22.800Z,3.63
2019-01-31T10:47:49.340Z,3.50
2019-01-31T10:50:16.976Z,3.49
2019-01-31T10:52:44.923Z,3.37
2019-01-31T10:55:12.561Z,3.58
2019-01-31T10:57:40.559Z,3.59
2019-01-31T11:00:14.442Z,3.72
2019-01-31T11:02:42.340Z,3.63
2019-01-31T11:05:10.317Z,3.72
2019-01-31T11:07:38.267Z,3.50
2019-01-31T11:10:06.258Z,3.59
2019-01-31T11:12:34.205Z,3.68
2019-01-31T11:15:01.903Z,3.83
2019-01-31T11:17:29.525Z,3.50
2019-01-31T11:19:57.520Z,3.58
2019-01-31T11:22:25.582Z,3.55
2019-01-31T11:24:53.214Z,3.51
2019-01-31T11:27:21.103Z,3.63
2019-01-31T11:29:48.732Z,3.82
2019-01-31T11:32:16.627Z,3.92
2019-01-31T11:34:44.622Z,3.91
2019-01-31T11:37:12.300Z,3.93
2019-01-31T11:39:40.242Z,3.80
2019-01-31T11:42:07.859Z,3.99
2019-01-31T11:44:37.962Z,3.98
2019-01-31T11:47:05.091Z,3.78
2019-01-31T11:49:33.035Z,3.74
2019-01-31T11:52:01.022Z,3.84
2019-01-31T11:54:28.650Z,3.91
2019-01-31T11:57:05.328Z,3.79
2019-01-31T11:59:25.936Z,3.92
2019-01-31T12:01:53.905Z,3.92
2019-01-31T12:04:21.526Z,3.86
2019-01-31T12:06:49.152Z,3.85
2019-01-31T12:09:17.096Z,3.94
2019-01-31T12:11:45.069Z,3.66
2019-01-31T12:14:13.033Z,3.82
2019-01-31T12:16:41.008Z,3.91
2019-01-31T12:19:08.868Z,3.97
2019-01-31T12:21:36.507Z,4.02
2019-01-31T12:24:04.403Z,3.91
2019-01-31T12:26:32.034Z,4.08
2019-01-31T12:28:59.927Z,4.03
2019-01-31T12:31:27.554Z,3.90
2019-01-31T12:33:55.462Z,3.81
2019-01-31T12:36:23.086Z,3.86
2019-01-31T12:38:50.701Z,3.86
2019-01-31T12:41:18.653Z,3.79
2019-01-31T12:43:46.624Z,3.69
2019-01-31T12:46:14.596Z,3.67
2019-01-31T12:48:42.566Z,3.81
2019-01-31T12:51:10.539Z,3.82
2019-01-31T12:53:38.505Z,3.83
2019-01-31T12:56:06.472Z,3.69
2019-01-31T12:58:34.117Z,3.72
2019-01-31T13:01:02.001Z,3.68
2019-01-31T13:03:29.971Z,3.67
2019-01-31T13:05:57.602Z,3.69
2019-01-31T13:08:25.225Z,3.85
2019-01-31T13:10:52.840Z,3.88
2019-01-31T13:13:20.727Z,3.90
2019-01-31T13:15:48.586Z,3.76
2019-01-31T13:18:16.208Z,3.76
2019-01-31T13:20:43.834Z,3.59
2019-01-31T13:23:11.444Z,3.56
2019-01-31T13:25:39.063Z,3.52
2019-01-31T13:28:06.677Z,3.48
2019-01-31T13:30:34.301Z,3.51
2019-01-31T13:33:02.232Z,3.65
2019-01-31T13:35:30.199Z,3.69
2019-01-31T13:37:58.169Z,3.77
2019-01-31T13:40:26.143Z,3.97
2019-01-31T13:42:54.099Z,3.93
2019-01-31T13:45:21.712Z,4.04
2019-01-31T13:47:49.747Z,4.03
2019-01-31T13:50:17.709Z,3.99
2019-01-31T13:52:45.681Z,3.98
2019-01-31T13:55:13.297Z,3.97
2019-01-31T13:57:40.925Z,3.94
2019-01-31T14:00:08.981Z,3.89
2019-01-31T14:02:36.614Z,3.89
2019-01-31T14:05:04.504Z,3.85
2019-01-31T14:07:32.125Z,3.92
2019-01-31T14:10:00.035Z,3.92
2019-01-31T14:12:28.002Z,3.87
2019-01-31T14:14:55.624Z,3.78
2019-01-31T14:17:23.550Z,3.82
2019-01-31T14:19:51.500Z,3.87
2019-01-31T14:22:19.469Z,4.01
2019-01-31T14:24:47.437Z,3.92
2019-01-31T14:27:15.070Z,3.91
2019-01-31T14:29:42.701Z,3.86
2019-01-31T14:32:10.637Z,3.92
2019-01-31T14:34:38.600Z,3.93
2019-01-31T14:37:06.568Z,3.88
2019-01-31T14:39:34.535Z,3.91
2019-01-31T14:42:02.203Z,3.84
2019-01-31T14:44:30.069Z,3.84
2019-01-31T14:46:57.713Z,3.74
2019-01-31T14:49:25.379Z,3.70
2019-01-31T14:51:53.365Z,3.64
2019-01-31T14:54:21.236Z,3.57
2019-01-31T14:56:48.866Z,3.50
2019-01-31T14:59:16.763Z,3.38
2019-01-31T15:01:44.727Z,3.24
2019-01-31T15:04:12.701Z,3.18
2019-01-31T15:06:40.334Z,3.15
2019-01-31T15:09:08.782Z,3.05
2019-01-31T15:11:36.813Z,3.25
2019-01-31T15:14:04.437Z,3.57
2019-01-31T15:16:32.341Z,4.01
2019-01-31T15:19:00.314Z,3.93
2019-01-31T15:21:27.940Z,3.56
2019-01-31T15:23:55.576Z,3.70
2019-01-31T15:26:23.506Z,3.82
2019-01-31T15:28:51.476Z,3.63
2019-01-31T15:31:19.439Z,3.39
2019-01-31T15:33:47.071Z,3.56
2019-01-31T15:36:14.981Z,3.44
2019-01-31T15:38:42.620Z,3.83
2019-01-31T15:41:10.233Z,3.83
2019-01-31T15:43:38.168Z,3.74
2019-01-31T15:46:05.810Z,3.83
2019-01-31T15:48:33.694Z,3.64
2019-01-31T15:51:01.669Z,3.64
2019-01-31T15:53:29.637Z,3.67
2019-01-31T15:55:57.258Z,3.63
2019-01-31T15:58:25.167Z,3.53
2019-01-31T16:00:52.799Z,3.55
2019-01-31T16:03:20.819Z,3.42
2019-01-31T16:05:48.436Z,3.66
2019-01-31T16:08:16.633Z,3.15
2019-01-31T16:10:44.298Z,3.19
2019-01-31T16:13:12.177Z,3.21
2019-01-31T16:15:39.802Z,2.94
2019-01-31T16:18:07.694Z,3.14
2019-01-31T16:20:35.676Z,3.33
2019-01-31T16:23:03.300Z,3.22
2019-01-31T16:25:31.201Z,3.23
2019-01-31T16:27:58.839Z,2.73
2019-01-31T16:30:26.644Z,2.93
2019-01-31T16:32:54.590Z,2.79
2019-01-31T16:35:22.561Z,2.79
2019-01-31T16:37:50.531Z,2.66
2019-01-31T16:40:18.164Z,2.81
2019-01-31T16:42:46.058Z,2.86
2019-01-31T16:45:14.031Z,3.04
2019-01-31T16:47:41.746Z,2.89
2019-01-31T16:50:09.381Z,2.74
2019-01-31T16:52:37.026Z,2.56
2019-01-31T16:55:04.985Z,2.61
2019-01-31T16:57:33.268Z,2.66
2019-01-31T17:00:01.334Z,2.64
2019-01-31T17:02:28.959Z,2.53
2019-01-31T17:04:56.580Z,2.78
2019-01-31T17:07:24.525Z,2.81
2019-01-31T17:09:52.153Z,2.88
2019-01-31T17:12:19.785Z,2.53
2019-01-31T17:14:47.410Z,2.68
2019-01-31T17:17:15.045Z,2.62
2019-01-31T17:19:42.673Z,2.63
2019-01-31T17:22:10.300Z,2.64
2019-01-31T17:24:38.269Z,2.56
2019-01-31T17:27:06.239Z,2.54
2019-01-31T17:29:34.205Z,2.67
2019-01-31T17:32:02.176Z,2.61
2019-01-31T17:34:30.146Z,2.47
2019-01-31T17:36:58.115Z,2.43
2019-01-31T17:39:25.749Z,2.40
2019-01-31T17:41:53.664Z,2.36
2019-01-31T17:44:21.290Z,2.29
2019-01-31T17:46:48.907Z,2.30
2019-01-31T17:49:16.552Z,2.33
2019-01-31T17:51:44.503Z,2.36
2019-01-31T17:54:12.139Z,2.37
2019-01-31T17:56:40.024Z,2.34
2019-01-31T17:59:07.997Z,2.26
2019-01-31T18:01:36.173Z,2.24
2019-01-31T18:04:04.143Z,2.19
2019-01-31T18:06:32.117Z,2.15
2019-01-31T18:08:59.750Z,2.13
2019-01-31T18:11:27.369Z,2.02
2019-01-31T18:13:55.301Z,2.03
2019-01-31T18:16:23.267Z,2.10
2019-01-31T18:18:50.918Z,2.01
2019-01-31T18:21:18.801Z,1.92
2019-01-31T18:23:46.519Z,1.94
2019-01-31T18:26:14.443Z,1.88
2019-01-31T18:28:42.068Z,1.90
2019-01-31T18:31:09.982Z,1.74
2019-01-31T18:33:37.935Z,1.80
2019-01-31T18:36:05.904Z,1.78
2019-01-31T18:38:33.890Z,1.70
2019-01-31T18:41:01.516Z,1.68
2019-01-31T18:43:29.143Z,1.75
2019-01-31T18:45:57.071Z,1.59
2019-01-31T18:48:25.041Z,1.67
2019-01-31T18:50:53.016Z,1.53
2019-01-31T18:53:20.636Z,1.48
2019-01-31T18:55:48.274Z,1.46
2019-01-31T18:58:15.904Z,1.46
2019-01-31T19:00:43.957Z,1.49
2019-01-31T19:03:11.932Z,1.39
2019-01-31T19:05:39.571Z,1.51
2019-01-31T19:08:09.062Z,1.43
2019-01-31T19:10:43.212Z,1.38
2019-01-31T19:13:06.182Z,1.36
2019-01-31T19:15:34.159Z,1.51
2019-01-31T19:18:06.192Z,1.26
2019-01-31T19:20:31.726Z,1.23
2019-01-31T19:22:59.349Z,1.13
2019-01-31T19:25:27.349Z,1.14
2019-01-31T19:27:54.974Z,1.14
2019-01-31T19:30:22.871Z,1.19
2019-01-31T19:32:50.743Z,1.19
2019-01-31T19:35:18.710Z,1.20
2019-01-31T19:37:46.700Z,1.13
2019-01-31T19:40:14.652Z,1.16
2019-01-31T19:42:42.273Z,1.21
2019-01-31T19:45:10.183Z,1.00
2019-01-31T19:47:38.166Z,1.11
2019-01-31T19:50:06.118Z,1.05
2019-01-31T19:52:34.087Z,1.02
2019-01-31T19:55:02.061Z,1.16
2019-01-31T19:57:30.019Z,1.04
2019-01-31T19:59:57.999Z,0.83
2019-01-31T20:02:25.966Z,0.91
2019-01-31T20:04:53.938Z,0.88
2019-01-31T20:07:21.568Z,0.90
2019-01-31T20:09:49.271Z,0.95
2019-01-31T20:12:16.888Z,0.84
2019-01-31T20:14:44.532Z,0.89
2019-01-31T20:17:12.157Z,0.78
2019-01-31T20:19:40.114Z,0.75
2019-01-31T20:22:08.088Z,0.79
2019-01-31T20:24:36.058Z,0.75
2019-01-31T20:27:04.330Z,0.74
2019-01-31T20:29:32.301Z,0.85
2019-01-31T20:31:59.934Z,0.83
2019-01-31T20:34:27.831Z,0.78
2019-01-31T20:36:55.795Z,0.86
2019-01-31T20:39:23.775Z,0.74
2019-01-31T20:41:54.199Z,0.83
2019-01-31T20:44:21.357Z,0.73
2019-01-31T20:46:49.317Z,0.75
2019-01-31T20:49:16.934Z,0.69
2019-01-31T20:51:44.641Z,0.71
2019-01-31T20:54:12.346Z,0.62
2019-01-31T20:56:40.274Z,0.69
2019-01-31T20:59:07.892Z,0.62
2019-01-31T21:01:35.799Z,0.70
2019-01-31T21:04:03.423Z,0.64
2019-01-31T21:06:41.169Z,0.63
2019-01-31T21:09:00.672Z,0.50
2019-01-31T21:11:28.605Z,0.48
2019-01-31T21:13:56.581Z,0.46
2019-01-31T21:16:24.213Z,0.49
2019-01-31T21:18:51.831Z,0.48
2019-01-31T21:21:19.457Z,0.36
2019-01-31T21:23:47.425Z,0.25
2019-01-31T21:26:15.418Z,0.27
2019-01-31T21:28:43.375Z,0.33
2019-01-31T21:31:11.344Z,0.35
2019-01-31T21:33:39.308Z,0.30
2019-01-31T21:36:07.274Z,0.25
2019-01-31T21:38:34.898Z,0.23
2019-01-31T21:41:02.537Z,0.09
2019-01-31T21:43:30.161Z,0.30
2019-01-31T21:45:57.786Z,0.16
2019-01-31T21:48:25.406Z,0.14
2019-01-31T21:50:53.371Z,0.17
2019-01-31T21:53:21.330Z,0.18
2019-01-31T21:55:49.023Z,0.11
2019-01-31T21:58:16.851Z,0.12
2019-01-31T22:00:44.558Z,0.13
2019-01-31T22:03:12.501Z,0.06
2019-01-31T22:05:40.451Z,0.04
2019-01-31T22:08:08.076Z,0.10
2019-01-31T22:10:35.679Z,0.04
2019-01-31T22:13:03.386Z,0.02
2019-01-31T22:15:31.313Z,-0.01
2019-01-31T22:18:00.395Z,0.03
2019-01-31T22:20:28.678Z,0.05
2019-01-31T22:22:56.302Z,0.05
2019-01-31T22:25:23.933Z,0.07
2019-01-31T22:27:51.568Z,0.11
2019-01-31T22:30:19.535Z,0.08
2019-01-31T22:32:47.509Z,0.08
2019-01-31T22:35:15.476Z,0.10
2019-01-31T22:37:43.751Z,0.14
2019-01-31T22:40:11.717Z,0.11
2019-01-31T22:42:39.688Z,0.20
2019-01-31T22:45:07.677Z,0.17
2019-01-31T22:47:35.628Z,0.23
2019-01-31T22:50:03.492Z,0.24
2019-01-31T22:52:31.142Z,0.27
2019-01-31T22:54:59.041Z,0.27
2019-01-31T22:57:26.675Z,0.26
2019-01-31T22:59:54.297Z,0.29
2019-01-31T23:02:22.236Z,0.31
2019-01-31T23:04:49.862Z,0.36
2019-01-31T23:07:17.491Z,0.24
2019-01-31T23:09:45.526Z,0.25
2019-01-31T23:12:13.488Z,0.22
2019-01-31T23:14:41.449Z,0.21
2019-01-31T23:17:09.075Z,0.26
2019-01-31T23:19:36.700Z,0.23
2019-01-31T23:22:04.644Z,0.25
2019-01-31T23:24:32.530Z,0.22
2019-01-31T23:27:00.494Z,0.23
2019-01-31T23:29:28.173Z,0.21
2019-01-31T23:31:55.811Z,0.20
2019-01-31T23:34:23.430Z,0.19
2019-01-31T23:36:51.338Z,0.18
2019-01-31T23:39:19.330Z,0.14
2019-01-31T23:41:47.275Z,0.13
2019-01-31T23:44:15.247Z,0.16
2019-01-31T23:46:43.212Z,0.03
2019-01-31T23:49:10.838Z,0.07
2019-01-31T23:51:38.743Z,0.14
2019-01-31T23:54:06.372Z,0.09
2019-01-31T23:56:34.276Z,0.05
2019-01-31T23:59:02.250Z,0.03
